sensor_id;sensor_type;location;lat;lon;timestamp;P1;durP1;ratioP1;P2;durP2;ratioP2
23472;SDS011;11909;52.516;13.564;2023-02-11T00:01:07;53.53;;;27.38;;
23472;SDS011;11909;52.516;13.564;2023-02-11T00:03:36;56.92;;;28.48;;
23472;SDS011;11909;52.516;13.564;2023-02-11T00:06:05;59.72;;;30.50;;
23472;SDS011;11909;52.516;13.564;2023-02-11T00:08:34;57.97;;;30.43;;
23472;SDS011;11909;52.516;13.564;2023-02-11T00:11:02;53.65;;;28.60;;
23472;SDS011;11909;52.516;13.564;2023-02-11T00:13:32;59.92;;;29.13;;
23472;SDS011;11909;52.516;13.564;2023-02-11T00:16:04;53.65;;;28.35;;
23472;SDS011;11909;52.516;13.564;2023-02-11T00:18:33;54.42;;;28.45;;
23472;SDS011;11909;52.516;13.564;2023-02-11T00:21:04;58.60;;;27.98;;
23472;SDS011;11909;52.516;13.564;2023-02-11T00:23:33;55.35;;;29.20;;
23472;SDS011;11909;52.516;13.564;2023-02-11T00:26:02;52.58;;;28.13;;
23472;SDS011;11909;52.516;13.564;2023-02-11T00:28:31;54.30;;;29.98;;
23472;SDS011;11909;52.516;13.564;2023-02-11T00:30:59;53.65;;;27.88;;
23472;SDS011;11909;52.516;13.564;2023-02-11T00:33:27;51.88;;;29.15;;
23472;SDS011;11909;52.516;13.564;2023-02-11T00:35:55;53.40;;;27.80;;
23472;SDS011;11909;52.516;13.564;2023-02-11T00:38:23;54.15;;;28.83;;
23472;SDS011;11909;52.516;13.564;2023-02-11T00:40:50;63.00;;;28.92;;
23472;SDS011;11909;52.516;13.564;2023-02-11T00:43:18;54.55;;;28.30;;
23472;SDS011;11909;52.516;13.564;2023-02-11T00:45:47;63.28;;;29.33;;
23472;SDS011;11909;52.516;13.564;2023-02-11T00:48:15;51.30;;;27.40;;
23472;SDS011;11909;52.516;13.564;2023-02-11T00:50:43;58.17;;;27.48;;
23472;SDS011;11909;52.516;13.564;2023-02-11T00:53:10;52.03;;;28.40;;
23472;SDS011;11909;52.516;13.564;2023-02-11T00:55:38;56.75;;;29.10;;
23472;SDS011;11909;52.516;13.564;2023-02-11T00:58:06;52.10;;;27.40;;
23472;SDS011;11909;52.516;13.564;2023-02-11T01:00:33;53.17;;;28.25;;
23472;SDS011;11909;52.516;13.564;2023-02-11T01:03:02;50.45;;;27.20;;
23472;SDS011;11909;52.516;13.564;2023-02-11T01:05:30;53.90;;;29.48;;
23472;SDS011;11909;52.516;13.564;2023-02-11T01:07:58;53.78;;;27.77;;
23472;SDS011;11909;52.516;13.564;2023-02-11T01:10:26;52.10;;;27.80;;
23472;SDS011;11909;52.516;13.564;2023-02-11T01:12:54;49.30;;;27.30;;
23472;SDS011;11909;52.516;13.564;2023-02-11T01:15:21;50.40;;;26.23;;
23472;SDS011;11909;52.516;13.564;2023-02-11T01:17:49;51.25;;;27.63;;
23472;SDS011;11909;52.516;13.564;2023-02-11T01:20:19;53.10;;;26.38;;
23472;SDS011;11909;52.516;13.564;2023-02-11T01:22:48;51.13;;;26.90;;
23472;SDS011;11909;52.516;13.564;2023-02-11T01:25:16;51.13;;;27.52;;
23472;SDS011;11909;52.516;13.564;2023-02-11T01:27:44;58.88;;;28.60;;
23472;SDS011;11909;52.516;13.564;2023-02-11T01:30:12;57.05;;;28.55;;
23472;SDS011;11909;52.516;13.564;2023-02-11T01:32:40;58.95;;;28.70;;
23472;SDS011;11909;52.516;13.564;2023-02-11T01:35:08;51.33;;;27.13;;
23472;SDS011;11909;52.516;13.564;2023-02-11T01:37:37;57.90;;;28.90;;
23472;SDS011;11909;52.516;13.564;2023-02-11T01:40:09;57.85;;;29.67;;
23472;SDS011;11909;52.516;13.564;2023-02-11T01:42:39;53.05;;;29.15;;
23472;SDS011;11909;52.516;13.564;2023-02-11T01:48:19;54.20;;;27.40;;
23472;SDS011;11909;52.516;13.564;2023-02-11T01:53:20;50.03;;;26.98;;
23472;SDS011;11909;52.516;13.564;2023-02-11T01:56:06;55.38;;;28.63;;
23472;SDS011;11909;52.516;13.564;2023-02-11T01:58:52;51.88;;;27.95;;
23472;SDS011;11909;52.516;13.564;2023-02-11T02:01:23;54.90;;;27.48;;
23472;SDS011;11909;52.516;13.564;2023-02-11T02:03:54;53.25;;;27.63;;
23472;SDS011;11909;52.516;13.564;2023-02-11T02:06:27;51.05;;;27.65;;
23472;SDS011;11909;52.516;13.564;2023-02-11T02:09:02;50.90;;;27.25;;
23472;SDS011;11909;52.516;13.564;2023-02-11T02:11:34;51.60;;;27.65;;
23472;SDS011;11909;52.516;13.564;2023-02-11T02:14:02;53.55;;;27.67;;
23472;SDS011;11909;52.516;13.564;2023-02-11T02:16:31;57.20;;;28.50;;
23472;SDS011;11909;52.516;13.564;2023-02-11T02:19:06;49.45;;;27.38;;
23472;SDS011;11909;52.516;13.564;2023-02-11T02:21:57;59.10;;;28.08;;
23472;SDS011;11909;52.516;13.564;2023-02-11T02:27:47;54.10;;;27.50;;
23472;SDS011;11909;52.516;13.564;2023-02-11T02:33:41;49.80;;;27.45;;
23472;SDS011;11909;52.516;13.564;2023-02-11T02:36:16;52.20;;;27.65;;
23472;SDS011;11909;52.516;13.564;2023-02-11T02:38:50;52.63;;;29.05;;
23472;SDS011;11909;52.516;13.564;2023-02-11T02:41:21;54.85;;;27.73;;
23472;SDS011;11909;52.516;13.564;2023-02-11T02:43:53;56.40;;;29.25;;
23472;SDS011;11909;52.516;13.564;2023-02-11T02:46:22;53.33;;;28.60;;
23472;SDS011;11909;52.516;13.564;2023-02-11T02:48:53;54.17;;;28.67;;
23472;SDS011;11909;52.516;13.564;2023-02-11T02:57:03;53.60;;;28.88;;
23472;SDS011;11909;52.516;13.564;2023-02-11T02:59:44;49.38;;;28.92;;
23472;SDS011;11909;52.516;13.564;2023-02-11T03:02:25;50.95;;;27.50;;
23472;SDS011;11909;52.516;13.564;2023-02-11T03:04:59;54.15;;;29.42;;
23472;SDS011;11909;52.516;13.564;2023-02-11T03:07:34;47.25;;;28.48;;
23472;SDS011;11909;52.516;13.564;2023-02-11T03:10:07;58.97;;;30.77;;
23472;SDS011;11909;52.516;13.564;2023-02-11T03:12:39;52.88;;;28.98;;
23472;SDS011;11909;52.516;13.564;2023-02-11T03:15:10;48.63;;;28.73;;
23472;SDS011;11909;52.516;13.564;2023-02-11T03:17:40;57.70;;;29.53;;
23472;SDS011;11909;52.516;13.564;2023-02-11T03:20:12;51.70;;;29.20;;
23472;SDS011;11909;52.516;13.564;2023-02-11T03:22:44;53.08;;;29.50;;
23472;SDS011;11909;52.516;13.564;2023-02-11T03:25:16;51.75;;;28.75;;
23472;SDS011;11909;52.516;13.564;2023-02-11T03:27:46;53.97;;;29.75;;
23472;SDS011;11909;52.516;13.564;2023-02-11T03:30:20;52.58;;;29.77;;
23472;SDS011;11909;52.516;13.564;2023-02-11T03:32:54;56.80;;;30.00;;
23472;SDS011;11909;52.516;13.564;2023-02-11T03:35:30;51.47;;;28.55;;
23472;SDS011;11909;52.516;13.564;2023-02-11T03:38:03;59.28;;;29.88;;
23472;SDS011;11909;52.516;13.564;2023-02-11T03:40:34;54.95;;;30.27;;
23472;SDS011;11909;52.516;13.564;2023-02-11T03:43:05;58.42;;;30.33;;
23472;SDS011;11909;52.516;13.564;2023-02-11T03:45:36;54.20;;;29.45;;
23472;SDS011;11909;52.516;13.564;2023-02-11T03:48:06;53.83;;;29.50;;
23472;SDS011;11909;52.516;13.564;2023-02-11T03:50:40;51.75;;;29.02;;
23472;SDS011;11909;52.516;13.564;2023-02-11T03:53:09;54.63;;;28.63;;
23472;SDS011;11909;52.516;13.564;2023-02-11T03:55:39;50.00;;;28.87;;
23472;SDS011;11909;52.516;13.564;2023-02-11T03:58:09;59.22;;;30.45;;
23472;SDS011;11909;52.516;13.564;2023-02-11T04:00:38;53.20;;;30.15;;
23472;SDS011;11909;52.516;13.564;2023-02-11T04:03:08;51.03;;;30.60;;
23472;SDS011;11909;52.516;13.564;2023-02-11T04:05:36;50.38;;;28.83;;
23472;SDS011;11909;52.516;13.564;2023-02-11T04:08:06;53.72;;;30.40;;
23472;SDS011;11909;52.516;13.564;2023-02-11T04:10:34;57.90;;;31.48;;
23472;SDS011;11909;52.516;13.564;2023-02-11T04:13:02;55.60;;;30.38;;
23472;SDS011;11909;52.516;13.564;2023-02-11T04:15:30;58.65;;;30.63;;
23472;SDS011;11909;52.516;13.564;2023-02-11T04:17:57;56.17;;;30.67;;
23472;SDS011;11909;52.516;13.564;2023-02-11T04:20:25;51.22;;;30.15;;
23472;SDS011;11909;52.516;13.564;2023-02-11T04:22:53;54.03;;;30.70;;
23472;SDS011;11909;52.516;13.564;2023-02-11T04:25:22;56.63;;;31.30;;
23472;SDS011;11909;52.516;13.564;2023-02-11T04:27:51;58.95;;;31.98;;
23472;SDS011;11909;52.516;13.564;2023-02-11T04:30:19;55.75;;;32.35;;
23472;SDS011;11909;52.516;13.564;2023-02-11T04:32:46;58.92;;;32.50;;
23472;SDS011;11909;52.516;13.564;2023-02-11T04:35:14;63.63;;;32.97;;
23472;SDS011;11909;52.516;13.564;2023-02-11T04:37:42;63.47;;;33.10;;
23472;SDS011;11909;52.516;13.564;2023-02-11T04:40:10;59.55;;;33.05;;
23472;SDS011;11909;52.516;13.564;2023-02-11T04:42:39;61.20;;;34.38;;
23472;SDS011;11909;52.516;13.564;2023-02-11T04:45:07;58.28;;;32.80;;
23472;SDS011;11909;52.516;13.564;2023-02-11T04:47:35;65.38;;;34.17;;
23472;SDS011;11909;52.516;13.564;2023-02-11T04:50:03;61.83;;;33.58;;
23472;SDS011;11909;52.516;13.564;2023-02-11T04:52:31;62.25;;;34.63;;
23472;SDS011;11909;52.516;13.564;2023-02-11T04:54:59;60.63;;;34.60;;
23472;SDS011;11909;52.516;13.564;2023-02-11T04:57:27;64.15;;;36.40;;
23472;SDS011;11909;52.516;13.564;2023-02-11T04:59:56;62.28;;;35.88;;
23472;SDS011;11909;52.516;13.564;2023-02-11T05:02:23;64.65;;;35.47;;
23472;SDS011;11909;52.516;13.564;2023-02-11T05:04:51;64.70;;;33.63;;
23472;SDS011;11909;52.516;13.564;2023-02-11T05:07:19;65.53;;;36.28;;
23472;SDS011;11909;52.516;13.564;2023-02-11T05:09:46;66.68;;;36.78;;
23472;SDS011;11909;52.516;13.564;2023-02-11T05:12:14;67.75;;;37.10;;
23472;SDS011;11909;52.516;13.564;2023-02-11T05:14:42;62.75;;;34.78;;
23472;SDS011;11909;52.516;13.564;2023-02-11T05:17:11;62.55;;;37.13;;
23472;SDS011;11909;52.516;13.564;2023-02-11T05:19:38;70.95;;;37.83;;
23472;SDS011;11909;52.516;13.564;2023-02-11T05:22:07;64.25;;;36.35;;
23472;SDS011;11909;52.516;13.564;2023-02-11T05:24:35;72.03;;;36.83;;
23472;SDS011;11909;52.516;13.564;2023-02-11T05:27:03;66.22;;;36.78;;
23472;SDS011;11909;52.516;13.564;2023-02-11T05:29:30;72.63;;;38.95;;
23472;SDS011;11909;52.516;13.564;2023-02-11T05:31:58;62.72;;;35.83;;
23472;SDS011;11909;52.516;13.564;2023-02-11T05:34:27;72.65;;;37.20;;
23472;SDS011;11909;52.516;13.564;2023-02-11T05:36:55;68.38;;;37.05;;
23472;SDS011;11909;52.516;13.564;2023-02-11T05:39:23;72.82;;;37.80;;
23472;SDS011;11909;52.516;13.564;2023-02-11T05:41:50;71.07;;;39.33;;
23472;SDS011;11909;52.516;13.564;2023-02-11T05:44:18;72.57;;;37.70;;
23472;SDS011;11909;52.516;13.564;2023-02-11T05:46:46;75.35;;;39.00;;
23472;SDS011;11909;52.516;13.564;2023-02-11T05:49:15;75.85;;;40.15;;
23472;SDS011;11909;52.516;13.564;2023-02-11T05:51:44;66.53;;;36.38;;
23472;SDS011;11909;52.516;13.564;2023-02-11T05:54:12;69.65;;;37.13;;
23472;SDS011;11909;52.516;13.564;2023-02-11T05:56:40;65.88;;;38.25;;
23472;SDS011;11909;52.516;13.564;2023-02-11T05:59:10;73.80;;;39.10;;
23472;SDS011;11909;52.516;13.564;2023-02-11T06:01:40;74.20;;;40.42;;
23472;SDS011;11909;52.516;13.564;2023-02-11T06:04:08;68.57;;;38.97;;
23472;SDS011;11909;52.516;13.564;2023-02-11T06:06:36;76.03;;;38.47;;
23472;SDS011;11909;52.516;13.564;2023-02-11T06:09:04;79.65;;;41.13;;
23472;SDS011;11909;52.516;13.564;2023-02-11T06:11:32;74.18;;;40.95;;
23472;SDS011;11909;52.516;13.564;2023-02-11T06:14:00;76.75;;;40.70;;
23472;SDS011;11909;52.516;13.564;2023-02-11T06:16:28;71.90;;;41.38;;
23472;SDS011;11909;52.516;13.564;2023-02-11T06:18:56;75.70;;;41.47;;
23472;SDS011;11909;52.516;13.564;2023-02-11T06:21:24;74.28;;;42.00;;
23472;SDS011;11909;52.516;13.564;2023-02-11T06:24:10;77.50;;;42.88;;
23472;SDS011;11909;52.516;13.564;2023-02-11T06:26:38;76.90;;;42.35;;
23472;SDS011;11909;52.516;13.564;2023-02-11T06:29:06;78.00;;;41.58;;
23472;SDS011;11909;52.516;13.564;2023-02-11T06:31:35;77.05;;;42.17;;
23472;SDS011;11909;52.516;13.564;2023-02-11T06:34:04;79.47;;;42.78;;
23472;SDS011;11909;52.516;13.564;2023-02-11T06:36:31;73.15;;;40.78;;
23472;SDS011;11909;52.516;13.564;2023-02-11T06:38:59;80.47;;;42.97;;
23472;SDS011;11909;52.516;13.564;2023-02-11T06:41:28;80.38;;;44.05;;
23472;SDS011;11909;52.516;13.564;2023-02-11T06:43:56;78.05;;;41.88;;
23472;SDS011;11909;52.516;13.564;2023-02-11T06:46:24;85.35;;;44.22;;
23472;SDS011;11909;52.516;13.564;2023-02-11T06:48:51;79.90;;;42.45;;
23472;SDS011;11909;52.516;13.564;2023-02-11T06:51:19;75.43;;;42.33;;
23472;SDS011;11909;52.516;13.564;2023-02-11T06:53:47;89.25;;;46.20;;
23472;SDS011;11909;52.516;13.564;2023-02-11T06:56:16;85.03;;;43.20;;
23472;SDS011;11909;52.516;13.564;2023-02-11T06:58:50;82.70;;;42.40;;
23472;SDS011;11909;52.516;13.564;2023-02-11T07:01:20;84.70;;;44.75;;
23472;SDS011;11909;52.516;13.564;2023-02-11T07:03:48;87.18;;;44.08;;
23472;SDS011;11909;52.516;13.564;2023-02-11T07:06:17;83.15;;;43.78;;
23472;SDS011;11909;52.516;13.564;2023-02-11T07:08:47;80.63;;;43.92;;
23472;SDS011;11909;52.516;13.564;2023-02-11T07:11:16;81.65;;;44.72;;
23472;SDS011;11909;52.516;13.564;2023-02-11T07:13:45;82.00;;;44.47;;
23472;SDS011;11909;52.516;13.564;2023-02-11T07:16:15;78.55;;;43.83;;
23472;SDS011;11909;52.516;13.564;2023-02-11T07:18:46;85.07;;;43.80;;
23472;SDS011;11909;52.516;13.564;2023-02-11T07:21:15;85.20;;;44.75;;
23472;SDS011;11909;52.516;13.564;2023-02-11T07:23:44;78.57;;;43.10;;
23472;SDS011;11909;52.516;13.564;2023-02-11T07:26:12;85.43;;;43.28;;
23472;SDS011;11909;52.516;13.564;2023-02-11T07:28:42;86.25;;;44.92;;
23472;SDS011;11909;52.516;13.564;2023-02-11T07:31:12;92.68;;;46.65;;
23472;SDS011;11909;52.516;13.564;2023-02-11T07:33:42;83.90;;;44.50;;
23472;SDS011;11909;52.516;13.564;2023-02-11T07:36:11;78.15;;;43.65;;
23472;SDS011;11909;52.516;13.564;2023-02-11T07:38:40;84.23;;;45.53;;
23472;SDS011;11909;52.516;13.564;2023-02-11T07:41:09;87.70;;;43.90;;
23472;SDS011;11909;52.516;13.564;2023-02-11T07:43:38;87.60;;;43.70;;
23472;SDS011;11909;52.516;13.564;2023-02-11T07:46:07;88.78;;;43.90;;
23472;SDS011;11909;52.516;13.564;2023-02-11T07:48:38;78.40;;;43.65;;
23472;SDS011;11909;52.516;13.564;2023-02-11T07:51:07;84.03;;;42.85;;
23472;SDS011;11909;52.516;13.564;2023-02-11T07:53:35;82.10;;;43.95;;
23472;SDS011;11909;52.516;13.564;2023-02-11T07:56:04;78.90;;;39.92;;
23472;SDS011;11909;52.516;13.564;2023-02-11T07:58:32;91.03;;;45.00;;
23472;SDS011;11909;52.516;13.564;2023-02-11T08:01:01;90.32;;;45.33;;
23472;SDS011;11909;52.516;13.564;2023-02-11T08:03:29;81.55;;;44.63;;
23472;SDS011;11909;52.516;13.564;2023-02-11T08:05:59;85.13;;;41.50;;
23472;SDS011;11909;52.516;13.564;2023-02-11T08:08:29;83.63;;;44.15;;
23472;SDS011;11909;52.516;13.564;2023-02-11T08:10:57;94.55;;;43.95;;
23472;SDS011;11909;52.516;13.564;2023-02-11T08:13:25;84.25;;;45.45;;
23472;SDS011;11909;52.516;13.564;2023-02-11T08:15:53;91.40;;;46.63;;
23472;SDS011;11909;52.516;13.564;2023-02-11T08:20:51;76.25;;;39.95;;
23472;SDS011;11909;52.516;13.564;2023-02-11T08:23:20;86.35;;;43.97;;
23472;SDS011;11909;52.516;13.564;2023-02-11T08:25:47;87.95;;;44.47;;
23472;SDS011;11909;52.516;13.564;2023-02-11T08:28:15;92.78;;;45.45;;
23472;SDS011;11909;52.516;13.564;2023-02-11T08:30:43;81.10;;;43.28;;
23472;SDS011;11909;52.516;13.564;2023-02-11T08:33:10;85.55;;;42.35;;
23472;SDS011;11909;52.516;13.564;2023-02-11T08:35:38;85.85;;;43.92;;
23472;SDS011;11909;52.516;13.564;2023-02-11T08:38:06;80.57;;;42.13;;
23472;SDS011;11909;52.516;13.564;2023-02-11T08:40:36;85.78;;;43.63;;
23472;SDS011;11909;52.516;13.564;2023-02-11T08:43:03;88.22;;;41.78;;
23472;SDS011;11909;52.516;13.564;2023-02-11T08:45:33;86.82;;;43.08;;
23472;SDS011;11909;52.516;13.564;2023-02-11T08:48:01;85.82;;;41.85;;
23472;SDS011;11909;52.516;13.564;2023-02-11T08:50:28;85.72;;;43.97;;
23472;SDS011;11909;52.516;13.564;2023-02-11T08:52:57;84.93;;;43.25;;
23472;SDS011;11909;52.516;13.564;2023-02-11T08:55:25;85.28;;;43.85;;
23472;SDS011;11909;52.516;13.564;2023-02-11T08:57:54;79.18;;;42.33;;
23472;SDS011;11909;52.516;13.564;2023-02-11T09:00:22;75.47;;;40.45;;
23472;SDS011;11909;52.516;13.564;2023-02-11T09:02:49;83.18;;;43.85;;
23472;SDS011;11909;52.516;13.564;2023-02-11T09:05:17;85.40;;;42.50;;
23472;SDS011;11909;52.516;13.564;2023-02-11T09:07:45;74.07;;;41.67;;
23472;SDS011;11909;52.516;13.564;2023-02-11T09:10:12;81.32;;;41.80;;
23472;SDS011;11909;52.516;13.564;2023-02-11T09:12:40;77.70;;;40.63;;
23472;SDS011;11909;52.516;13.564;2023-02-11T09:15:09;83.20;;;41.28;;
23472;SDS011;11909;52.516;13.564;2023-02-11T09:17:37;77.18;;;40.17;;
23472;SDS011;11909;52.516;13.564;2023-02-11T09:20:05;71.82;;;39.92;;
23472;SDS011;11909;52.516;13.564;2023-02-11T09:22:36;77.43;;;40.85;;
23472;SDS011;11909;52.516;13.564;2023-02-11T09:25:04;80.40;;;39.50;;
23472;SDS011;11909;52.516;13.564;2023-02-11T09:27:32;79.75;;;39.67;;
23472;SDS011;11909;52.516;13.564;2023-02-11T09:29:59;82.72;;;41.53;;
23472;SDS011;11909;52.516;13.564;2023-02-11T09:32:28;73.95;;;39.95;;
23472;SDS011;11909;52.516;13.564;2023-02-11T09:34:56;72.35;;;39.97;;
23472;SDS011;11909;52.516;13.564;2023-02-11T09:37:24;80.63;;;39.92;;
23472;SDS011;11909;52.516;13.564;2023-02-11T09:39:52;77.88;;;40.80;;
23472;SDS011;11909;52.516;13.564;2023-02-11T09:42:27;78.28;;;39.88;;
23472;SDS011;11909;52.516;13.564;2023-02-11T09:45:10;76.18;;;38.00;;
23472;SDS011;11909;52.516;13.564;2023-02-11T09:47:46;78.72;;;40.45;;
23472;SDS011;11909;52.516;13.564;2023-02-11T09:50:18;72.50;;;39.35;;
23472;SDS011;11909;52.516;13.564;2023-02-11T09:52:51;83.03;;;41.50;;
23472;SDS011;11909;52.516;13.564;2023-02-11T09:55:24;77.15;;;39.75;;
23472;SDS011;11909;52.516;13.564;2023-02-11T09:57:54;78.63;;;39.97;;
23472;SDS011;11909;52.516;13.564;2023-02-11T10:00:23;77.00;;;41.55;;
23472;SDS011;11909;52.516;13.564;2023-02-11T10:02:59;72.05;;;39.25;;
23472;SDS011;11909;52.516;13.564;2023-02-11T10:05:47;83.70;;;40.20;;
23472;SDS011;11909;52.516;13.564;2023-02-11T10:08:33;72.15;;;37.00;;
23472;SDS011;11909;52.516;13.564;2023-02-11T10:11:13;76.53;;;38.92;;
23472;SDS011;11909;52.516;13.564;2023-02-11T10:13:59;68.25;;;37.30;;
23472;SDS011;11909;52.516;13.564;2023-02-11T10:16:36;70.53;;;37.95;;
23472;SDS011;11909;52.516;13.564;2023-02-11T10:19:19;77.65;;;39.13;;
23472;SDS011;11909;52.516;13.564;2023-02-11T10:22:01;71.88;;;38.50;;
23472;SDS011;11909;52.516;13.564;2023-02-11T10:24:36;71.50;;;36.30;;
23472;SDS011;11909;52.516;13.564;2023-02-11T10:27:07;72.55;;;37.72;;
23472;SDS011;11909;52.516;13.564;2023-02-11T10:29:44;70.05;;;36.28;;
23472;SDS011;11909;52.516;13.564;2023-02-11T10:32:20;69.32;;;37.22;;
23472;SDS011;11909;52.516;13.564;2023-02-11T10:34:57;74.53;;;37.10;;
23472;SDS011;11909;52.516;13.564;2023-02-11T10:37:28;66.35;;;36.20;;
23472;SDS011;11909;52.516;13.564;2023-02-11T10:39:56;66.53;;;36.22;;
23472;SDS011;11909;52.516;13.564;2023-02-11T10:42:23;71.45;;;35.88;;
23472;SDS011;11909;52.516;13.564;2023-02-11T10:44:55;67.97;;;36.67;;
23472;SDS011;11909;52.516;13.564;2023-02-11T10:47:27;64.07;;;35.45;;
23472;SDS011;11909;52.516;13.564;2023-02-11T10:50:00;63.85;;;35.80;;
23472;SDS011;11909;52.516;13.564;2023-02-11T10:52:45;71.60;;;37.70;;
23472;SDS011;11909;52.516;13.564;2023-02-11T10:55:14;69.53;;;37.85;;
23472;SDS011;11909;52.516;13.564;2023-02-11T10:57:48;70.38;;;37.20;;
23472;SDS011;11909;52.516;13.564;2023-02-11T11:00:24;67.70;;;36.50;;
23472;SDS011;11909;52.516;13.564;2023-02-11T11:02:59;74.93;;;36.05;;
23472;SDS011;11909;52.516;13.564;2023-02-11T11:05:30;63.75;;;34.78;;
23472;SDS011;11909;52.516;13.564;2023-02-11T11:08:01;65.82;;;36.53;;
23472;SDS011;11909;52.516;13.564;2023-02-11T11:10:34;69.15;;;36.40;;
23472;SDS011;11909;52.516;13.564;2023-02-11T11:13:22;65.88;;;33.70;;
23472;SDS011;11909;52.516;13.564;2023-02-11T11:18:51;70.65;;;36.28;;
23472;SDS011;11909;52.516;13.564;2023-02-11T11:21:24;67.18;;;35.13;;
23472;SDS011;11909;52.516;13.564;2023-02-11T11:23:57;71.43;;;35.72;;
23472;SDS011;11909;52.516;13.564;2023-02-11T11:26:26;67.82;;;35.30;;
23472;SDS011;11909;52.516;13.564;2023-02-11T11:29:06;60.38;;;33.00;;
23472;SDS011;11909;52.516;13.564;2023-02-11T11:31:44;59.08;;;32.92;;
23472;SDS011;11909;52.516;13.564;2023-02-11T11:34:17;61.13;;;32.95;;
23472;SDS011;11909;52.516;13.564;2023-02-11T11:36:50;59.10;;;31.80;;
23472;SDS011;11909;52.516;13.564;2023-02-11T11:39:19;65.45;;;34.25;;
23472;SDS011;11909;52.516;13.564;2023-02-11T11:41:53;58.00;;;32.50;;
23472;SDS011;11909;52.516;13.564;2023-02-11T11:44:27;66.75;;;31.20;;
23472;SDS011;11909;52.516;13.564;2023-02-11T11:49:50;52.70;;;29.50;;
23472;SDS011;11909;52.516;13.564;2023-02-11T11:52:36;58.00;;;31.45;;
23472;SDS011;11909;52.516;13.564;2023-02-11T11:55:12;55.63;;;31.27;;
23472;SDS011;11909;52.516;13.564;2023-02-11T11:57:44;53.40;;;30.48;;
23472;SDS011;11909;52.516;13.564;2023-02-11T12:00:16;57.88;;;31.50;;
23472;SDS011;11909;52.516;13.564;2023-02-11T12:02:59;52.33;;;29.70;;
23472;SDS011;11909;52.516;13.564;2023-02-11T12:05:42;52.42;;;31.10;;
23472;SDS011;11909;52.516;13.564;2023-02-11T12:08:22;59.13;;;31.60;;
23472;SDS011;11909;52.516;13.564;2023-02-11T12:11:01;53.90;;;30.40;;
23472;SDS011;11909;52.516;13.564;2023-02-11T12:13:40;56.47;;;29.55;;
23472;SDS011;11909;52.516;13.564;2023-02-11T12:16:22;54.28;;;30.13;;
23472;SDS011;11909;52.516;13.564;2023-02-11T12:19:10;48.13;;;28.85;;
23472;SDS011;11909;52.516;13.564;2023-02-11T12:21:54;51.90;;;30.40;;
23472;SDS011;11909;52.516;13.564;2023-02-11T12:24:38;54.70;;;29.38;;
23472;SDS011;11909;52.516;13.564;2023-02-11T12:27:15;53.65;;;27.08;;
23472;SDS011;11909;52.516;13.564;2023-02-11T12:29:54;48.97;;;27.60;;
23472;SDS011;11909;52.516;13.564;2023-02-11T12:32:31;51.67;;;27.75;;
23472;SDS011;11909;52.516;13.564;2023-02-11T12:35:08;85.28;;;43.78;;
23472;SDS011;11909;52.516;13.564;2023-02-11T12:38:02;49.25;;;28.92;;
23472;SDS011;11909;52.516;13.564;2023-02-11T12:40:45;48.22;;;27.20;;
23472;SDS011;11909;52.516;13.564;2023-02-11T12:43:21;45.67;;;26.35;;
23472;SDS011;11909;52.516;13.564;2023-02-11T12:45:57;50.83;;;26.50;;
23472;SDS011;11909;52.516;13.564;2023-02-11T12:48:38;48.65;;;27.95;;
23472;SDS011;11909;52.516;13.564;2023-02-11T12:51:23;49.63;;;26.05;;
23472;SDS011;11909;52.516;13.564;2023-02-11T12:54:13;49.92;;;26.80;;
23472;SDS011;11909;52.516;13.564;2023-02-11T12:56:49;48.05;;;26.80;;
23472;SDS011;11909;52.516;13.564;2023-02-11T12:59:28;44.13;;;27.77;;
23472;SDS011;11909;52.516;13.564;2023-02-11T13:02:03;42.85;;;27.02;;
23472;SDS011;11909;52.516;13.564;2023-02-11T13:04:38;47.83;;;27.45;;
23472;SDS011;11909;52.516;13.564;2023-02-11T13:07:10;47.67;;;27.67;;
23472;SDS011;11909;52.516;13.564;2023-02-11T13:09:42;54.42;;;30.55;;
23472;SDS011;11909;52.516;13.564;2023-02-11T13:12:17;51.22;;;30.05;;
23472;SDS011;11909;52.516;13.564;2023-02-11T13:15:03;49.90;;;28.55;;
23472;SDS011;11909;52.516;13.564;2023-02-11T13:17:35;43.00;;;26.52;;
23472;SDS011;11909;52.516;13.564;2023-02-11T13:20:13;38.10;;;26.55;;
23472;SDS011;11909;52.516;13.564;2023-02-11T13:22:47;42.47;;;27.02;;
23472;SDS011;11909;52.516;13.564;2023-02-11T13:25:24;43.15;;;25.30;;
23472;SDS011;11909;52.516;13.564;2023-02-11T13:28:04;41.42;;;24.42;;
23472;SDS011;11909;52.516;13.564;2023-02-11T13:30:44;37.42;;;24.55;;
23472;SDS011;11909;52.516;13.564;2023-02-11T13:33:19;38.85;;;24.00;;
23472;SDS011;11909;52.516;13.564;2023-02-11T13:38:50;39.90;;;22.63;;
23472;SDS011;11909;52.516;13.564;2023-02-11T13:41:25;40.83;;;22.13;;
23472;SDS011;11909;52.516;13.564;2023-02-11T13:43:58;33.40;;;21.83;;
23472;SDS011;11909;52.516;13.564;2023-02-11T13:46:28;38.53;;;21.95;;
23472;SDS011;11909;52.516;13.564;2023-02-11T13:49:18;39.38;;;22.65;;
23472;SDS011;11909;52.516;13.564;2023-02-11T13:51:48;32.95;;;22.58;;
23472;SDS011;11909;52.516;13.564;2023-02-11T13:54:22;36.53;;;22.20;;
23472;SDS011;11909;52.516;13.564;2023-02-11T13:59:59;35.95;;;21.92;;
23472;SDS011;11909;52.516;13.564;2023-02-11T14:05:21;35.47;;;21.80;;
23472;SDS011;11909;52.516;13.564;2023-02-11T14:08:17;34.45;;;22.40;;
23472;SDS011;11909;52.516;13.564;2023-02-11T14:11:05;39.00;;;22.10;;
23472;SDS011;11909;52.516;13.564;2023-02-11T14:14:00;34.75;;;21.75;;
23472;SDS011;11909;52.516;13.564;2023-02-11T14:16:32;31.95;;;21.48;;
23472;SDS011;11909;52.516;13.564;2023-02-11T14:19:04;34.63;;;21.67;;
23472;SDS011;11909;52.516;13.564;2023-02-11T14:21:33;34.70;;;21.50;;
23472;SDS011;11909;52.516;13.564;2023-02-11T14:27:09;38.08;;;22.35;;
23472;SDS011;11909;52.516;13.564;2023-02-11T14:29:48;32.90;;;21.35;;
23472;SDS011;11909;52.516;13.564;2023-02-11T14:32:32;36.00;;;20.92;;
23472;SDS011;11909;52.516;13.564;2023-02-11T14:35:07;32.03;;;21.50;;
23472;SDS011;11909;52.516;13.564;2023-02-11T14:37:41;34.63;;;20.23;;
23472;SDS011;11909;52.516;13.564;2023-02-11T14:40:18;34.80;;;21.05;;
23472;SDS011;11909;52.516;13.564;2023-02-11T14:42:53;27.13;;;19.02;;
23472;SDS011;11909;52.516;13.564;2023-02-11T14:45:23;32.03;;;18.30;;
23472;SDS011;11909;52.516;13.564;2023-02-11T14:47:57;25.52;;;17.17;;
23472;SDS011;11909;52.516;13.564;2023-02-11T14:50:31;26.40;;;16.73;;
23472;SDS011;11909;52.516;13.564;2023-02-11T14:53:03;26.58;;;17.70;;
23472;SDS011;11909;52.516;13.564;2023-02-11T14:55:32;27.77;;;18.38;;
23472;SDS011;11909;52.516;13.564;2023-02-11T14:58:05;21.67;;;17.13;;
23472;SDS011;11909;52.516;13.564;2023-02-11T15:00:34;26.13;;;17.40;;
23472;SDS011;11909;52.516;13.564;2023-02-11T15:03:03;29.08;;;17.70;;
23472;SDS011;11909;52.516;13.564;2023-02-11T15:05:31;26.00;;;16.85;;
23472;SDS011;11909;52.516;13.564;2023-02-11T15:07:59;23.13;;;15.73;;
23472;SDS011;11909;52.516;13.564;2023-02-11T15:10:30;22.40;;;15.35;;
23472;SDS011;11909;52.516;13.564;2023-02-11T15:13:00;22.70;;;16.20;;